<?xml version="1.0" encoding="UTF-8" standalone="no" ?>
<gpx xmlns="http://www.topografix.com/GPX/1/1" xmlns:xsi="http://www.w3.org/2001/XMLSchema-instance" xsi:schemaLocation="http://www.topografix.com/GPX/1/1 http://www.topografix.com/GPX/1/1/gpx.xsd" version="1.1" creator="VisuGPX - https://www.visugpx.com">
  <metadata>
    <name>RANDO RECOUMENE PRESAILLES 24 KM</name>
    <desc><![CDATA[RANDO RECOUMENE PRESAILLES 24 KM.DEPART ARRIVÉE PARKING VIADUC. AVOUAC.PPRESAILLES . MEYZERAC.MASSIBRAND BOUREYROUX]]></desc>
  </metadata>
  <trk>
    <name><![CDATA[43 La Recoumene-Presailles-Largentiere 23.8kms-16250160]]></name>
    <extensions>
      <line xmlns="http://www.topografix.com/GPX/gpx_style/0/2">
        <color>0000FF</color>
        <width>4</width>
      </line>
    </extensions>
    <trkseg>
      <trkpt lat="44.93206" lon="4.01649">
        <ele>933</ele>
        <time>2025-06-07T09:55:35Z</time>
      </trkpt>
      <trkpt lat="44.93207" lon="4.01657">
        <ele>934</ele>
        <time>2025-06-07T09:55:43Z</time>
      </trkpt>
      <trkpt lat="44.93202" lon="4.01665">
        <ele>932</ele>
        <time>2025-06-07T09:55:53Z</time>
      </trkpt>
      <trkpt lat="44.93156" lon="4.0171">
        <ele>917</ele>
        <time>2025-06-07T09:57:07Z</time>
      </trkpt>
      <trkpt lat="44.93122" lon="4.01732">
        <ele>912</ele>
        <time>2025-06-07T09:57:57Z</time>
      </trkpt>
      <trkpt lat="44.93068" lon="4.01753">
        <ele>913</ele>
        <time>2025-06-07T09:59:12Z</time>
      </trkpt>
      <trkpt lat="44.92991" lon="4.01762">
        <ele>944</ele>
        <time>2025-06-07T10:00:55Z</time>
      </trkpt>
      <trkpt lat="44.92952" lon="4.0176">
        <ele>953</ele>
        <time>2025-06-07T10:01:47Z</time>
      </trkpt>
      <trkpt lat="44.92922" lon="4.01755">
        <ele>960</ele>
        <time>2025-06-07T10:02:28Z</time>
      </trkpt>
      <trkpt lat="44.92885" lon="4.01738">
        <ele>963</ele>
        <time>2025-06-07T10:03:19Z</time>
      </trkpt>
      <trkpt lat="44.92838" lon="4.01734">
        <ele>968</ele>
        <time>2025-06-07T10:04:22Z</time>
      </trkpt>
      <trkpt lat="44.928" lon="4.01743">
        <ele>967</ele>
        <time>2025-06-07T10:05:14Z</time>
      </trkpt>
      <trkpt lat="44.92764" lon="4.01759">
        <ele>968</ele>
        <time>2025-06-07T10:06:04Z</time>
      </trkpt>
      <trkpt lat="44.92719" lon="4.01786">
        <ele>965</ele>
        <time>2025-06-07T10:07:09Z</time>
      </trkpt>
      <trkpt lat="44.9264" lon="4.01864">
        <ele>964</ele>
        <time>2025-06-07T10:09:18Z</time>
      </trkpt>
      <trkpt lat="44.92629" lon="4.01884">
        <ele>967</ele>
        <time>2025-06-07T10:09:42Z</time>
      </trkpt>
      <trkpt lat="44.92543" lon="4.0199">
        <ele>968</ele>
        <time>2025-06-07T10:12:14Z</time>
      </trkpt>
      <trkpt lat="44.92506" lon="4.02055">
        <ele>969</ele>
        <time>2025-06-07T10:13:33Z</time>
      </trkpt>
      <trkpt lat="44.92477" lon="4.0209">
        <ele>967</ele>
        <time>2025-06-07T10:14:24Z</time>
      </trkpt>
      <trkpt lat="44.92458" lon="4.02122">
        <ele>968</ele>
        <time>2025-06-07T10:15:03Z</time>
      </trkpt>
      <trkpt lat="44.92434" lon="4.02181">
        <ele>972</ele>
        <time>2025-06-07T10:16:08Z</time>
      </trkpt>
      <trkpt lat="44.9241" lon="4.02226">
        <ele>974</ele>
        <time>2025-06-07T10:17:01Z</time>
      </trkpt>
      <trkpt lat="44.92362" lon="4.02372">
        <ele>985</ele>
        <time>2025-06-07T10:19:33Z</time>
      </trkpt>
      <trkpt lat="44.92342" lon="4.0242">
        <ele>984</ele>
        <time>2025-06-07T10:20:26Z</time>
      </trkpt>
      <trkpt lat="44.92326" lon="4.02454">
        <ele>982</ele>
        <time>2025-06-07T10:21:04Z</time>
      </trkpt>
      <trkpt lat="44.92299" lon="4.02495">
        <ele>980</ele>
        <time>2025-06-07T10:21:57Z</time>
      </trkpt>
      <trkpt lat="44.92259" lon="4.02533">
        <ele>975</ele>
        <time>2025-06-07T10:23:01Z</time>
      </trkpt>
      <trkpt lat="44.92205" lon="4.02563">
        <ele>972</ele>
        <time>2025-06-07T10:24:19Z</time>
      </trkpt>
      <trkpt lat="44.92157" lon="4.02574">
        <ele>972</ele>
        <time>2025-06-07T10:25:24Z</time>
      </trkpt>
      <trkpt lat="44.92108" lon="4.02578">
        <ele>982</ele>
        <time>2025-06-07T10:26:29Z</time>
      </trkpt>
      <trkpt lat="44.92081" lon="4.02571">
        <ele>986</ele>
        <time>2025-06-07T10:27:06Z</time>
      </trkpt>
      <trkpt lat="44.92045" lon="4.02548">
        <ele>989</ele>
        <time>2025-06-07T10:27:59Z</time>
      </trkpt>
      <trkpt lat="44.92001" lon="4.02494">
        <ele>989</ele>
        <time>2025-06-07T10:29:16Z</time>
      </trkpt>
      <trkpt lat="44.91966" lon="4.02446">
        <ele>988</ele>
        <time>2025-06-07T10:30:22Z</time>
      </trkpt>
      <trkpt lat="44.91938" lon="4.02362">
        <ele>986</ele>
        <time>2025-06-07T10:31:49Z</time>
      </trkpt>
      <trkpt lat="44.91926" lon="4.02296">
        <ele>989</ele>
        <time>2025-06-07T10:32:54Z</time>
      </trkpt>
      <trkpt lat="44.91928" lon="4.02227">
        <ele>993</ele>
        <time>2025-06-07T10:33:59Z</time>
      </trkpt>
      <trkpt lat="44.91923" lon="4.02174">
        <ele>997</ele>
        <time>2025-06-07T10:34:49Z</time>
      </trkpt>
      <trkpt lat="44.9193" lon="4.01997">
        <ele>1005</ele>
        <time>2025-06-07T10:37:37Z</time>
      </trkpt>
      <trkpt lat="44.91932" lon="4.018">
        <ele>1011</ele>
        <time>2025-06-07T10:40:43Z</time>
      </trkpt>
      <trkpt lat="44.91931" lon="4.0178">
        <ele>1010</ele>
        <time>2025-06-07T10:41:02Z</time>
      </trkpt>
      <trkpt lat="44.91916" lon="4.01731">
        <ele>1006</ele>
        <time>2025-06-07T10:41:52Z</time>
      </trkpt>
      <trkpt lat="44.91912" lon="4.01704">
        <ele>1006</ele>
        <time>2025-06-07T10:42:19Z</time>
      </trkpt>
      <trkpt lat="44.91916" lon="4.01662">
        <ele>1004</ele>
        <time>2025-06-07T10:42:59Z</time>
      </trkpt>
      <trkpt lat="44.91913" lon="4.01622">
        <ele>1002</ele>
        <time>2025-06-07T10:43:37Z</time>
      </trkpt>
      <trkpt lat="44.91897" lon="4.01543">
        <ele>999</ele>
        <time>2025-06-07T10:44:54Z</time>
      </trkpt>
      <trkpt lat="44.91891" lon="4.01533">
        <ele>999</ele>
        <time>2025-06-07T10:45:07Z</time>
      </trkpt>
      <trkpt lat="44.91883" lon="4.01531">
        <ele>1000</ele>
        <time>2025-06-07T10:45:17Z</time>
      </trkpt>
      <trkpt lat="44.91858" lon="4.01545">
        <ele>1006</ele>
        <time>2025-06-07T10:45:53Z</time>
      </trkpt>
      <trkpt lat="44.91819" lon="4.01553">
        <ele>1014</ele>
        <time>2025-06-07T10:46:46Z</time>
      </trkpt>
      <trkpt lat="44.91788" lon="4.01605">
        <ele>1024</ele>
        <time>2025-06-07T10:47:50Z</time>
      </trkpt>
      <trkpt lat="44.91784" lon="4.01618">
        <ele>1026</ele>
        <time>2025-06-07T10:48:04Z</time>
      </trkpt>
      <trkpt lat="44.91786" lon="4.01642">
        <ele>1028</ele>
        <time>2025-06-07T10:48:26Z</time>
      </trkpt>
      <trkpt lat="44.91779" lon="4.01673">
        <ele>1032</ele>
        <time>2025-06-07T10:48:57Z</time>
      </trkpt>
      <trkpt lat="44.91784" lon="4.01675">
        <ele>1031</ele>
        <time>2025-06-07T10:49:04Z</time>
      </trkpt>
      <trkpt lat="44.91784" lon="4.01684">
        <ele>1032</ele>
        <time>2025-06-07T10:49:13Z</time>
      </trkpt>
      <trkpt lat="44.9178" lon="4.01696">
        <ele>1033</ele>
        <time>2025-06-07T10:49:25Z</time>
      </trkpt>
      <trkpt lat="44.91734" lon="4.01772">
        <ele>1047</ele>
        <time>2025-06-07T10:51:00Z</time>
      </trkpt>
      <trkpt lat="44.91719" lon="4.0179">
        <ele>1050</ele>
        <time>2025-06-07T10:51:26Z</time>
      </trkpt>
      <trkpt lat="44.91694" lon="4.01809">
        <ele>1055</ele>
        <time>2025-06-07T10:52:04Z</time>
      </trkpt>
      <trkpt lat="44.91686" lon="4.01806">
        <ele>1056</ele>
        <time>2025-06-07T10:52:15Z</time>
      </trkpt>
      <trkpt lat="44.91677" lon="4.01808">
        <ele>1058</ele>
        <time>2025-06-07T10:52:27Z</time>
      </trkpt>
      <trkpt lat="44.91652" lon="4.01824">
        <ele>1062</ele>
        <time>2025-06-07T10:53:04Z</time>
      </trkpt>
      <trkpt lat="44.9163" lon="4.01852">
        <ele>1065</ele>
        <time>2025-06-07T10:53:43Z</time>
      </trkpt>
      <trkpt lat="44.91621" lon="4.01878">
        <ele>1065</ele>
        <time>2025-06-07T10:54:10Z</time>
      </trkpt>
      <trkpt lat="44.9157" lon="4.01938">
        <ele>1073</ele>
        <time>2025-06-07T10:55:39Z</time>
      </trkpt>
      <trkpt lat="44.91544" lon="4.01954">
        <ele>1075</ele>
        <time>2025-06-07T10:56:17Z</time>
      </trkpt>
      <trkpt lat="44.91499" lon="4.02007">
        <ele>1083</ele>
        <time>2025-06-07T10:57:35Z</time>
      </trkpt>
      <trkpt lat="44.91451" lon="4.02052">
        <ele>1085</ele>
        <time>2025-06-07T10:58:52Z</time>
      </trkpt>
      <trkpt lat="44.91444" lon="4.02062">
        <ele>1086</ele>
        <time>2025-06-07T10:59:05Z</time>
      </trkpt>
      <trkpt lat="44.91451" lon="4.0208">
        <ele>1088</ele>
        <time>2025-06-07T10:59:25Z</time>
      </trkpt>
      <trkpt lat="44.91431" lon="4.02105">
        <ele>1090</ele>
        <time>2025-06-07T11:00:00Z</time>
      </trkpt>
      <trkpt lat="44.91431" lon="4.02114">
        <ele>1090</ele>
        <time>2025-06-07T11:00:09Z</time>
      </trkpt>
      <trkpt lat="44.91403" lon="4.02137">
        <ele>1092</ele>
        <time>2025-06-07T11:00:52Z</time>
      </trkpt>
      <trkpt lat="44.91365" lon="4.02198">
        <ele>1097</ele>
        <time>2025-06-07T11:02:09Z</time>
      </trkpt>
      <trkpt lat="44.91337" lon="4.02233">
        <ele>1101</ele>
        <time>2025-06-07T11:02:59Z</time>
      </trkpt>
      <trkpt lat="44.91297" lon="4.02346">
        <ele>1106</ele>
        <time>2025-06-07T11:04:58Z</time>
      </trkpt>
      <trkpt lat="44.91296" lon="4.02374">
        <ele>1107</ele>
        <time>2025-06-07T11:05:25Z</time>
      </trkpt>
      <trkpt lat="44.91258" lon="4.02426">
        <ele>1113</ele>
        <time>2025-06-07T11:06:35Z</time>
      </trkpt>
      <trkpt lat="44.91246" lon="4.02461">
        <ele>1114</ele>
        <time>2025-06-07T11:07:12Z</time>
      </trkpt>
      <trkpt lat="44.91231" lon="4.02539">
        <ele>1116</ele>
        <time>2025-06-07T11:08:28Z</time>
      </trkpt>
      <trkpt lat="44.91215" lon="4.02571">
        <ele>1117</ele>
        <time>2025-06-07T11:09:05Z</time>
      </trkpt>
      <trkpt lat="44.91199" lon="4.02622">
        <ele>1118</ele>
        <time>2025-06-07T11:09:58Z</time>
      </trkpt>
      <trkpt lat="44.91155" lon="4.027">
        <ele>1118</ele>
        <time>2025-06-07T11:11:32Z</time>
      </trkpt>
      <trkpt lat="44.91154" lon="4.02712">
        <ele>1118</ele>
        <time>2025-06-07T11:11:44Z</time>
      </trkpt>
      <trkpt lat="44.91132" lon="4.02756">
        <ele>1117</ele>
        <time>2025-06-07T11:12:35Z</time>
      </trkpt>
      <trkpt lat="44.91079" lon="4.02834">
        <ele>1116</ele>
        <time>2025-06-07T11:14:17Z</time>
      </trkpt>
      <trkpt lat="44.91043" lon="4.02854">
        <ele>1114</ele>
        <time>2025-06-07T11:15:08Z</time>
      </trkpt>
      <trkpt lat="44.91006" lon="4.02852">
        <ele>1113</ele>
        <time>2025-06-07T11:15:58Z</time>
      </trkpt>
      <trkpt lat="44.90987" lon="4.02855">
        <ele>1112</ele>
        <time>2025-06-07T11:16:23Z</time>
      </trkpt>
      <trkpt lat="44.9095" lon="4.02873">
        <ele>1113</ele>
        <time>2025-06-07T11:17:16Z</time>
      </trkpt>
      <trkpt lat="44.90885" lon="4.02894">
        <ele>1113</ele>
        <time>2025-06-07T11:18:45Z</time>
      </trkpt>
      <trkpt lat="44.9082" lon="4.02958">
        <ele>1112</ele>
        <time>2025-06-07T11:20:30Z</time>
      </trkpt>
      <trkpt lat="44.908" lon="4.02985">
        <ele>1113</ele>
        <time>2025-06-07T11:21:07Z</time>
      </trkpt>
      <trkpt lat="44.90774" lon="4.03002">
        <ele>1113</ele>
        <time>2025-06-07T11:21:45Z</time>
      </trkpt>
      <trkpt lat="44.9076" lon="4.03019">
        <ele>1113</ele>
        <time>2025-06-07T11:22:10Z</time>
      </trkpt>
      <trkpt lat="44.90743" lon="4.03025">
        <ele>1113</ele>
        <time>2025-06-07T11:22:34Z</time>
      </trkpt>
      <trkpt lat="44.9071" lon="4.03048">
        <ele>1112</ele>
        <time>2025-06-07T11:23:23Z</time>
      </trkpt>
      <trkpt lat="44.90692" lon="4.03056">
        <ele>1111</ele>
        <time>2025-06-07T11:23:48Z</time>
      </trkpt>
      <trkpt lat="44.90566" lon="4.03052">
        <ele>1110</ele>
        <time>2025-06-07T11:26:36Z</time>
      </trkpt>
      <trkpt lat="44.90547" lon="4.03025">
        <ele>1108</ele>
        <time>2025-06-07T11:27:12Z</time>
      </trkpt>
      <trkpt lat="44.90506" lon="4.02913">
        <ele>1102</ele>
        <time>2025-06-07T11:29:11Z</time>
      </trkpt>
      <trkpt lat="44.90499" lon="4.0291">
        <ele>1101</ele>
        <time>2025-06-07T11:29:21Z</time>
      </trkpt>
      <trkpt lat="44.9049" lon="4.02912">
        <ele>1101</ele>
        <time>2025-06-07T11:29:33Z</time>
      </trkpt>
      <trkpt lat="44.90453" lon="4.0293">
        <ele>1099</ele>
        <time>2025-06-07T11:30:25Z</time>
      </trkpt>
      <trkpt lat="44.90415" lon="4.02928">
        <ele>1096</ele>
        <time>2025-06-07T11:31:16Z</time>
      </trkpt>
      <trkpt lat="44.9036" lon="4.02906">
        <ele>1092</ele>
        <time>2025-06-07T11:32:32Z</time>
      </trkpt>
      <trkpt lat="44.90336" lon="4.02887">
        <ele>1091</ele>
        <time>2025-06-07T11:33:09Z</time>
      </trkpt>
      <trkpt lat="44.90313" lon="4.02862">
        <ele>1092</ele>
        <time>2025-06-07T11:33:48Z</time>
      </trkpt>
      <trkpt lat="44.90295" lon="4.02851">
        <ele>1092</ele>
        <time>2025-06-07T11:34:14Z</time>
      </trkpt>
      <trkpt lat="44.90277" lon="4.02851">
        <ele>1093</ele>
        <time>2025-06-07T11:34:38Z</time>
      </trkpt>
      <trkpt lat="44.90234" lon="4.0288">
        <ele>1095</ele>
        <time>2025-06-07T11:35:42Z</time>
      </trkpt>
      <trkpt lat="44.90167" lon="4.02892">
        <ele>1098</ele>
        <time>2025-06-07T11:37:12Z</time>
      </trkpt>
      <trkpt lat="44.9015" lon="4.02903">
        <ele>1099</ele>
        <time>2025-06-07T11:37:37Z</time>
      </trkpt>
      <trkpt lat="44.90135" lon="4.02921">
        <ele>1099</ele>
        <time>2025-06-07T11:38:03Z</time>
      </trkpt>
      <trkpt lat="44.90098" lon="4.02982">
        <ele>1104</ele>
        <time>2025-06-07T11:39:19Z</time>
      </trkpt>
      <trkpt lat="44.90091" lon="4.03005">
        <ele>1105</ele>
        <time>2025-06-07T11:39:42Z</time>
      </trkpt>
      <trkpt lat="44.90069" lon="4.03029">
        <ele>1107</ele>
        <time>2025-06-07T11:40:20Z</time>
      </trkpt>
      <trkpt lat="44.90028" lon="4.03103">
        <ele>1113</ele>
        <time>2025-06-07T11:41:48Z</time>
      </trkpt>
      <trkpt lat="44.90007" lon="4.0313">
        <ele>1117</ele>
        <time>2025-06-07T11:42:26Z</time>
      </trkpt>
      <trkpt lat="44.89963" lon="4.03201">
        <ele>1122</ele>
        <time>2025-06-07T11:43:55Z</time>
      </trkpt>
      <trkpt lat="44.89945" lon="4.03234">
        <ele>1125</ele>
        <time>2025-06-07T11:44:35Z</time>
      </trkpt>
      <trkpt lat="44.89931" lon="4.03271">
        <ele>1128</ele>
        <time>2025-06-07T11:45:14Z</time>
      </trkpt>
      <trkpt lat="44.89888" lon="4.03331">
        <ele>1131</ele>
        <time>2025-06-07T11:46:35Z</time>
      </trkpt>
      <trkpt lat="44.89836" lon="4.03435">
        <ele>1135</ele>
        <time>2025-06-07T11:48:35Z</time>
      </trkpt>
      <trkpt lat="44.89794" lon="4.03509">
        <ele>1135</ele>
        <time>2025-06-07T11:50:05Z</time>
      </trkpt>
      <trkpt lat="44.89729" lon="4.03598">
        <ele>1134</ele>
        <time>2025-06-07T11:52:06Z</time>
      </trkpt>
      <trkpt lat="44.89641" lon="4.03775">
        <ele>1138</ele>
        <time>2025-06-07T11:55:30Z</time>
      </trkpt>
      <trkpt lat="44.89587" lon="4.03834">
        <ele>1145</ele>
        <time>2025-06-07T11:57:01Z</time>
      </trkpt>
      <trkpt lat="44.89551" lon="4.03894">
        <ele>1151</ele>
        <time>2025-06-07T11:58:16Z</time>
      </trkpt>
      <trkpt lat="44.89548" lon="4.03907">
        <ele>1152</ele>
        <time>2025-06-07T11:58:29Z</time>
      </trkpt>
      <trkpt lat="44.89517" lon="4.03956">
        <ele>1156</ele>
        <time>2025-06-07T11:59:31Z</time>
      </trkpt>
      <trkpt lat="44.89479" lon="4.04034">
        <ele>1162</ele>
        <time>2025-06-07T12:01:00Z</time>
      </trkpt>
      <trkpt lat="44.89409" lon="4.04141">
        <ele>1171</ele>
        <time>2025-06-07T12:03:18Z</time>
      </trkpt>
      <trkpt lat="44.89404" lon="4.04208">
        <ele>1173</ele>
        <time>2025-06-07T12:04:22Z</time>
      </trkpt>
      <trkpt lat="44.89383" lon="4.04345">
        <ele>1181</ele>
        <time>2025-06-07T12:06:34Z</time>
      </trkpt>
      <trkpt lat="44.89368" lon="4.04376">
        <ele>1182</ele>
        <time>2025-06-07T12:07:10Z</time>
      </trkpt>
      <trkpt lat="44.89294" lon="4.04649">
        <ele>1194</ele>
        <time>2025-06-07T12:11:46Z</time>
      </trkpt>
      <trkpt lat="44.89267" lon="4.04722">
        <ele>1198</ele>
        <time>2025-06-07T12:13:04Z</time>
      </trkpt>
      <trkpt lat="44.89262" lon="4.04749">
        <ele>1200</ele>
        <time>2025-06-07T12:13:30Z</time>
      </trkpt>
      <trkpt lat="44.89216" lon="4.04895">
        <ele>1210</ele>
        <time>2025-06-07T12:16:01Z</time>
      </trkpt>
      <trkpt lat="44.89207" lon="4.04935">
        <ele>1213</ele>
        <time>2025-06-07T12:16:41Z</time>
      </trkpt>
      <trkpt lat="44.89154" lon="4.05095">
        <ele>1223</ele>
        <time>2025-06-07T12:19:28Z</time>
      </trkpt>
      <trkpt lat="44.89117" lon="4.05326">
        <ele>1219</ele>
        <time>2025-06-07T12:23:12Z</time>
      </trkpt>
      <trkpt lat="44.89101" lon="4.05378">
        <ele>1218</ele>
        <time>2025-06-07T12:24:06Z</time>
      </trkpt>
      <trkpt lat="44.89087" lon="4.05394">
        <ele>1217</ele>
        <time>2025-06-07T12:24:30Z</time>
      </trkpt>
      <trkpt lat="44.8905" lon="4.05403">
        <ele>1213</ele>
        <time>2025-06-07T12:25:20Z</time>
      </trkpt>
      <trkpt lat="44.89041" lon="4.05401">
        <ele>1212</ele>
        <time>2025-06-07T12:25:32Z</time>
      </trkpt>
      <trkpt lat="44.89043" lon="4.05399">
        <ele>1213</ele>
        <time>2025-06-07T12:25:35Z</time>
      </trkpt>
      <trkpt lat="44.88992" lon="4.05406">
        <ele>1208</ele>
        <time>2025-06-07T12:26:43Z</time>
      </trkpt>
      <trkpt lat="44.88974" lon="4.05412">
        <ele>1206</ele>
        <time>2025-06-07T12:27:08Z</time>
      </trkpt>
      <trkpt lat="44.88931" lon="4.05436">
        <ele>1201</ele>
        <time>2025-06-07T12:28:10Z</time>
      </trkpt>
      <trkpt lat="44.88911" lon="4.05465">
        <ele>1200</ele>
        <time>2025-06-07T12:28:48Z</time>
      </trkpt>
      <trkpt lat="44.88902" lon="4.05489">
        <ele>1199</ele>
        <time>2025-06-07T12:29:14Z</time>
      </trkpt>
      <trkpt lat="44.88877" lon="4.05506">
        <ele>1196</ele>
        <time>2025-06-07T12:29:51Z</time>
      </trkpt>
      <trkpt lat="44.88805" lon="4.0557">
        <ele>1188</ele>
        <time>2025-06-07T12:31:44Z</time>
      </trkpt>
      <trkpt lat="44.88771" lon="4.05615">
        <ele>1185</ele>
        <time>2025-06-07T12:32:47Z</time>
      </trkpt>
      <trkpt lat="44.8868" lon="4.05652">
        <ele>1181</ele>
        <time>2025-06-07T12:34:53Z</time>
      </trkpt>
      <trkpt lat="44.88642" lon="4.05662">
        <ele>1179</ele>
        <time>2025-06-07T12:35:45Z</time>
      </trkpt>
      <trkpt lat="44.88558" lon="4.05675">
        <ele>1176</ele>
        <time>2025-06-07T12:37:37Z</time>
      </trkpt>
      <trkpt lat="44.8854" lon="4.05682">
        <ele>1176</ele>
        <time>2025-06-07T12:38:02Z</time>
      </trkpt>
      <trkpt lat="44.88521" lon="4.05693">
        <ele>1176</ele>
        <time>2025-06-07T12:38:30Z</time>
      </trkpt>
      <trkpt lat="44.88473" lon="4.05739">
        <ele>1176</ele>
        <time>2025-06-07T12:39:47Z</time>
      </trkpt>
      <trkpt lat="44.88431" lon="4.05796">
        <ele>1175</ele>
        <time>2025-06-07T12:41:05Z</time>
      </trkpt>
      <trkpt lat="44.88414" lon="4.0583">
        <ele>1175</ele>
        <time>2025-06-07T12:41:44Z</time>
      </trkpt>
      <trkpt lat="44.88402" lon="4.05868">
        <ele>1174</ele>
        <time>2025-06-07T12:42:23Z</time>
      </trkpt>
      <trkpt lat="44.88384" lon="4.05946">
        <ele>1172</ele>
        <time>2025-06-07T12:43:41Z</time>
      </trkpt>
      <trkpt lat="44.8836" lon="4.06132">
        <ele>1164</ele>
        <time>2025-06-07T12:46:40Z</time>
      </trkpt>
      <trkpt lat="44.88353" lon="4.06133">
        <ele>1163</ele>
        <time>2025-06-07T12:46:49Z</time>
      </trkpt>
      <trkpt lat="44.88304" lon="4.06097">
        <ele>1157</ele>
        <time>2025-06-07T12:48:03Z</time>
      </trkpt>
      <trkpt lat="44.88278" lon="4.06058">
        <ele>1153</ele>
        <time>2025-06-07T12:48:54Z</time>
      </trkpt>
      <trkpt lat="44.88263" lon="4.06008">
        <ele>1150</ele>
        <time>2025-06-07T12:49:45Z</time>
      </trkpt>
      <trkpt lat="44.8826" lon="4.05981">
        <ele>1150</ele>
        <time>2025-06-07T12:50:11Z</time>
      </trkpt>
      <trkpt lat="44.88245" lon="4.05945">
        <ele>1149</ele>
        <time>2025-06-07T12:50:50Z</time>
      </trkpt>
      <trkpt lat="44.8823" lon="4.05893">
        <ele>1149</ele>
        <time>2025-06-07T12:51:43Z</time>
      </trkpt>
      <trkpt lat="44.88208" lon="4.05849">
        <ele>1148</ele>
        <time>2025-06-07T12:52:34Z</time>
      </trkpt>
      <trkpt lat="44.88183" lon="4.05774">
        <ele>1146</ele>
        <time>2025-06-07T12:53:53Z</time>
      </trkpt>
      <trkpt lat="44.88179" lon="4.05748">
        <ele>1146</ele>
        <time>2025-06-07T12:54:18Z</time>
      </trkpt>
      <trkpt lat="44.88173" lon="4.05625">
        <ele>1140</ele>
        <time>2025-06-07T12:56:14Z</time>
      </trkpt>
      <trkpt lat="44.88203" lon="4.05481">
        <ele>1141</ele>
        <time>2025-06-07T12:58:36Z</time>
      </trkpt>
      <trkpt lat="44.88223" lon="4.05362">
        <ele>1138</ele>
        <time>2025-06-07T13:00:32Z</time>
      </trkpt>
      <trkpt lat="44.88244" lon="4.05316">
        <ele>1138</ele>
        <time>2025-06-07T13:01:24Z</time>
      </trkpt>
      <trkpt lat="44.88245" lon="4.0529">
        <ele>1139</ele>
        <time>2025-06-07T13:01:48Z</time>
      </trkpt>
      <trkpt lat="44.88239" lon="4.0528">
        <ele>1139</ele>
        <time>2025-06-07T13:02:01Z</time>
      </trkpt>
      <trkpt lat="44.88217" lon="4.05274">
        <ele>1140</ele>
        <time>2025-06-07T13:02:31Z</time>
      </trkpt>
      <trkpt lat="44.88179" lon="4.05281">
        <ele>1140</ele>
        <time>2025-06-07T13:03:22Z</time>
      </trkpt>
      <trkpt lat="44.88161" lon="4.05275">
        <ele>1140</ele>
        <time>2025-06-07T13:03:46Z</time>
      </trkpt>
      <trkpt lat="44.88136" lon="4.05254">
        <ele>1139</ele>
        <time>2025-06-07T13:04:25Z</time>
      </trkpt>
      <trkpt lat="44.88114" lon="4.05227">
        <ele>1139</ele>
        <time>2025-06-07T13:05:04Z</time>
      </trkpt>
      <trkpt lat="44.88104" lon="4.05205">
        <ele>1141</ele>
        <time>2025-06-07T13:05:29Z</time>
      </trkpt>
      <trkpt lat="44.88094" lon="4.05166">
        <ele>1144</ele>
        <time>2025-06-07T13:06:08Z</time>
      </trkpt>
      <trkpt lat="44.88094" lon="4.05073">
        <ele>1147</ele>
        <time>2025-06-07T13:07:36Z</time>
      </trkpt>
      <trkpt lat="44.8811" lon="4.04934">
        <ele>1145</ele>
        <time>2025-06-07T13:09:49Z</time>
      </trkpt>
      <trkpt lat="44.88065" lon="4.04798">
        <ele>1155</ele>
        <time>2025-06-07T13:12:11Z</time>
      </trkpt>
      <trkpt lat="44.88056" lon="4.04729">
        <ele>1163</ele>
        <time>2025-06-07T13:13:17Z</time>
      </trkpt>
      <trkpt lat="44.88048" lon="4.04703">
        <ele>1165</ele>
        <time>2025-06-07T13:13:44Z</time>
      </trkpt>
      <trkpt lat="44.88045" lon="4.04651">
        <ele>1167</ele>
        <time>2025-06-07T13:14:34Z</time>
      </trkpt>
      <trkpt lat="44.88083" lon="4.0459">
        <ele>1165</ele>
        <time>2025-06-07T13:15:50Z</time>
      </trkpt>
      <trkpt lat="44.88093" lon="4.04553">
        <ele>1161</ele>
        <time>2025-06-07T13:16:28Z</time>
      </trkpt>
      <trkpt lat="44.88114" lon="4.04526">
        <ele>1159</ele>
        <time>2025-06-07T13:17:06Z</time>
      </trkpt>
      <trkpt lat="44.88134" lon="4.04464">
        <ele>1154</ele>
        <time>2025-06-07T13:18:10Z</time>
      </trkpt>
      <trkpt lat="44.88131" lon="4.04439">
        <ele>1151</ele>
        <time>2025-06-07T13:18:34Z</time>
      </trkpt>
      <trkpt lat="44.88124" lon="4.04432">
        <ele>1150</ele>
        <time>2025-06-07T13:18:46Z</time>
      </trkpt>
      <trkpt lat="44.88116" lon="4.0443">
        <ele>1148</ele>
        <time>2025-06-07T13:18:56Z</time>
      </trkpt>
      <trkpt lat="44.88112" lon="4.04437">
        <ele>1148</ele>
        <time>2025-06-07T13:19:05Z</time>
      </trkpt>
      <trkpt lat="44.88114" lon="4.04449">
        <ele>1150</ele>
        <time>2025-06-07T13:19:17Z</time>
      </trkpt>
      <trkpt lat="44.88116" lon="4.04443">
        <ele>1149</ele>
        <time>2025-06-07T13:19:23Z</time>
      </trkpt>
      <trkpt lat="44.88111" lon="4.04438">
        <ele>1148</ele>
        <time>2025-06-07T13:19:31Z</time>
      </trkpt>
      <trkpt lat="44.88114" lon="4.0444">
        <ele>1149</ele>
        <time>2025-06-07T13:19:35Z</time>
      </trkpt>
      <trkpt lat="44.88109" lon="4.04441">
        <ele>1148</ele>
        <time>2025-06-07T13:19:42Z</time>
      </trkpt>
      <trkpt lat="44.88112" lon="4.04414">
        <ele>1146</ele>
        <time>2025-06-07T13:20:08Z</time>
      </trkpt>
      <trkpt lat="44.88123" lon="4.04393">
        <ele>1146</ele>
        <time>2025-06-07T13:20:33Z</time>
      </trkpt>
      <trkpt lat="44.88117" lon="4.0437">
        <ele>1144</ele>
        <time>2025-06-07T13:20:56Z</time>
      </trkpt>
      <trkpt lat="44.88105" lon="4.04351">
        <ele>1140</ele>
        <time>2025-06-07T13:21:20Z</time>
      </trkpt>
      <trkpt lat="44.88087" lon="4.04342">
        <ele>1136</ele>
        <time>2025-06-07T13:21:45Z</time>
      </trkpt>
      <trkpt lat="44.88059" lon="4.04348">
        <ele>1133</ele>
        <time>2025-06-07T13:22:23Z</time>
      </trkpt>
      <trkpt lat="44.88011" lon="4.04336">
        <ele>1127</ele>
        <time>2025-06-07T13:23:28Z</time>
      </trkpt>
      <trkpt lat="44.87994" lon="4.04342">
        <ele>1126</ele>
        <time>2025-06-07T13:23:52Z</time>
      </trkpt>
      <trkpt lat="44.87941" lon="4.04373">
        <ele>1121</ele>
        <time>2025-06-07T13:25:08Z</time>
      </trkpt>
      <trkpt lat="44.87925" lon="4.04391">
        <ele>1122</ele>
        <time>2025-06-07T13:25:35Z</time>
      </trkpt>
      <trkpt lat="44.87921" lon="4.04403">
        <ele>1123</ele>
        <time>2025-06-07T13:25:48Z</time>
      </trkpt>
      <trkpt lat="44.87913" lon="4.04405">
        <ele>1123</ele>
        <time>2025-06-07T13:25:59Z</time>
      </trkpt>
      <trkpt lat="44.87889" lon="4.04387">
        <ele>1121</ele>
        <time>2025-06-07T13:26:35Z</time>
      </trkpt>
      <trkpt lat="44.87861" lon="4.04349">
        <ele>1115</ele>
        <time>2025-06-07T13:27:27Z</time>
      </trkpt>
      <trkpt lat="44.87833" lon="4.04333">
        <ele>1113</ele>
        <time>2025-06-07T13:28:07Z</time>
      </trkpt>
      <trkpt lat="44.87811" lon="4.04308">
        <ele>1110</ele>
        <time>2025-06-07T13:28:45Z</time>
      </trkpt>
      <trkpt lat="44.87714" lon="4.04256">
        <ele>1103</ele>
        <time>2025-06-07T13:31:03Z</time>
      </trkpt>
      <trkpt lat="44.8766" lon="4.04253">
        <ele>1099</ele>
        <time>2025-06-07T13:32:16Z</time>
      </trkpt>
      <trkpt lat="44.87632" lon="4.04258">
        <ele>1096</ele>
        <time>2025-06-07T13:32:53Z</time>
      </trkpt>
      <trkpt lat="44.87603" lon="4.04264">
        <ele>1093</ele>
        <time>2025-06-07T13:33:32Z</time>
      </trkpt>
      <trkpt lat="44.87578" lon="4.04281">
        <ele>1093</ele>
        <time>2025-06-07T13:34:09Z</time>
      </trkpt>
      <trkpt lat="44.87549" lon="4.04316">
        <ele>1094</ele>
        <time>2025-06-07T13:35:00Z</time>
      </trkpt>
      <trkpt lat="44.87523" lon="4.04357">
        <ele>1093</ele>
        <time>2025-06-07T13:35:52Z</time>
      </trkpt>
      <trkpt lat="44.87493" lon="4.04441">
        <ele>1094</ele>
        <time>2025-06-07T13:37:21Z</time>
      </trkpt>
      <trkpt lat="44.8748" lon="4.04462">
        <ele>1094</ele>
        <time>2025-06-07T13:37:48Z</time>
      </trkpt>
      <trkpt lat="44.87453" lon="4.0448">
        <ele>1093</ele>
        <time>2025-06-07T13:38:27Z</time>
      </trkpt>
      <trkpt lat="44.87448" lon="4.04503">
        <ele>1095</ele>
        <time>2025-06-07T13:38:50Z</time>
      </trkpt>
      <trkpt lat="44.87451" lon="4.0457">
        <ele>1099</ele>
        <time>2025-06-07T13:39:54Z</time>
      </trkpt>
      <trkpt lat="44.8747" lon="4.04728">
        <ele>1116</ele>
        <time>2025-06-07T13:42:25Z</time>
      </trkpt>
      <trkpt lat="44.87491" lon="4.04788">
        <ele>1120</ele>
        <time>2025-06-07T13:43:29Z</time>
      </trkpt>
      <trkpt lat="44.87502" lon="4.04868">
        <ele>1121</ele>
        <time>2025-06-07T13:44:46Z</time>
      </trkpt>
      <trkpt lat="44.87607" lon="4.05066">
        <ele>1121</ele>
        <time>2025-06-07T13:48:39Z</time>
      </trkpt>
      <trkpt lat="44.87605" lon="4.05076">
        <ele>1120</ele>
        <time>2025-06-07T13:48:49Z</time>
      </trkpt>
      <trkpt lat="44.87598" lon="4.05083">
        <ele>1119</ele>
        <time>2025-06-07T13:49:01Z</time>
      </trkpt>
      <trkpt lat="44.87555" lon="4.05108">
        <ele>1116</ele>
        <time>2025-06-07T13:50:03Z</time>
      </trkpt>
      <trkpt lat="44.87525" lon="4.05138">
        <ele>1115</ele>
        <time>2025-06-07T13:50:52Z</time>
      </trkpt>
      <trkpt lat="44.8747" lon="4.05174">
        <ele>1112</ele>
        <time>2025-06-07T13:52:13Z</time>
      </trkpt>
      <trkpt lat="44.87462" lon="4.05172">
        <ele>1111</ele>
        <time>2025-06-07T13:52:24Z</time>
      </trkpt>
      <trkpt lat="44.87442" lon="4.05177">
        <ele>1109</ele>
        <time>2025-06-07T13:52:51Z</time>
      </trkpt>
      <trkpt lat="44.87345" lon="4.05226">
        <ele>1092</ele>
        <time>2025-06-07T13:55:08Z</time>
      </trkpt>
      <trkpt lat="44.87317" lon="4.05229">
        <ele>1084</ele>
        <time>2025-06-07T13:55:46Z</time>
      </trkpt>
      <trkpt lat="44.873" lon="4.05239">
        <ele>1077</ele>
        <time>2025-06-07T13:56:10Z</time>
      </trkpt>
      <trkpt lat="44.87281" lon="4.05287">
        <ele>1070</ele>
        <time>2025-06-07T13:57:02Z</time>
      </trkpt>
      <trkpt lat="44.87279" lon="4.0533">
        <ele>1069</ele>
        <time>2025-06-07T13:57:43Z</time>
      </trkpt>
      <trkpt lat="44.87295" lon="4.05396">
        <ele>1068</ele>
        <time>2025-06-07T13:58:49Z</time>
      </trkpt>
      <trkpt lat="44.87301" lon="4.05462">
        <ele>1063</ele>
        <time>2025-06-07T13:59:52Z</time>
      </trkpt>
      <trkpt lat="44.87318" lon="4.05523">
        <ele>1061</ele>
        <time>2025-06-07T14:00:54Z</time>
      </trkpt>
      <trkpt lat="44.87308" lon="4.05587">
        <ele>1064</ele>
        <time>2025-06-07T14:01:56Z</time>
      </trkpt>
      <trkpt lat="44.87296" lon="4.05626">
        <ele>1063</ele>
        <time>2025-06-07T14:02:36Z</time>
      </trkpt>
      <trkpt lat="44.87295" lon="4.05653">
        <ele>1064</ele>
        <time>2025-06-07T14:03:02Z</time>
      </trkpt>
      <trkpt lat="44.87303" lon="4.05678">
        <ele>1066</ele>
        <time>2025-06-07T14:03:28Z</time>
      </trkpt>
      <trkpt lat="44.87302" lon="4.05714">
        <ele>1070</ele>
        <time>2025-06-07T14:04:02Z</time>
      </trkpt>
      <trkpt lat="44.87308" lon="4.05724">
        <ele>1071</ele>
        <time>2025-06-07T14:04:14Z</time>
      </trkpt>
      <trkpt lat="44.87325" lon="4.05732">
        <ele>1073</ele>
        <time>2025-06-07T14:04:38Z</time>
      </trkpt>
      <trkpt lat="44.87361" lon="4.05792">
        <ele>1081</ele>
        <time>2025-06-07T14:05:52Z</time>
      </trkpt>
      <trkpt lat="44.87398" lon="4.05835">
        <ele>1081</ele>
        <time>2025-06-07T14:06:56Z</time>
      </trkpt>
      <trkpt lat="44.87414" lon="4.05883">
        <ele>1085</ele>
        <time>2025-06-07T14:07:46Z</time>
      </trkpt>
      <trkpt lat="44.87413" lon="4.05896">
        <ele>1087</ele>
        <time>2025-06-07T14:07:59Z</time>
      </trkpt>
      <trkpt lat="44.87363" lon="4.06039">
        <ele>1097</ele>
        <time>2025-06-07T14:10:30Z</time>
      </trkpt>
      <trkpt lat="44.87317" lon="4.06131">
        <ele>1102</ele>
        <time>2025-06-07T14:12:16Z</time>
      </trkpt>
      <trkpt lat="44.873" lon="4.06196">
        <ele>1105</ele>
        <time>2025-06-07T14:13:22Z</time>
      </trkpt>
      <trkpt lat="44.87299" lon="4.06236">
        <ele>1106</ele>
        <time>2025-06-07T14:13:59Z</time>
      </trkpt>
      <trkpt lat="44.87304" lon="4.06289">
        <ele>1111</ele>
        <time>2025-06-07T14:14:50Z</time>
      </trkpt>
      <trkpt lat="44.87331" lon="4.06344">
        <ele>1116</ele>
        <time>2025-06-07T14:15:53Z</time>
      </trkpt>
      <trkpt lat="44.87328" lon="4.06381">
        <ele>1120</ele>
        <time>2025-06-07T14:16:29Z</time>
      </trkpt>
      <trkpt lat="44.87298" lon="4.0645">
        <ele>1127</ele>
        <time>2025-06-07T14:17:45Z</time>
      </trkpt>
      <trkpt lat="44.87239" lon="4.06519">
        <ele>1130</ele>
        <time>2025-06-07T14:19:27Z</time>
      </trkpt>
      <trkpt lat="44.87214" lon="4.06557">
        <ele>1131</ele>
        <time>2025-06-07T14:20:16Z</time>
      </trkpt>
      <trkpt lat="44.87192" lon="4.06633">
        <ele>1135</ele>
        <time>2025-06-07T14:21:34Z</time>
      </trkpt>
      <trkpt lat="44.87187" lon="4.06672">
        <ele>1138</ele>
        <time>2025-06-07T14:22:12Z</time>
      </trkpt>
      <trkpt lat="44.87169" lon="4.06702">
        <ele>1139</ele>
        <time>2025-06-07T14:22:49Z</time>
      </trkpt>
      <trkpt lat="44.87151" lon="4.06712">
        <ele>1139</ele>
        <time>2025-06-07T14:23:14Z</time>
      </trkpt>
      <trkpt lat="44.87101" lon="4.06791">
        <ele>1145</ele>
        <time>2025-06-07T14:24:55Z</time>
      </trkpt>
      <trkpt lat="44.87091" lon="4.06828">
        <ele>1148</ele>
        <time>2025-06-07T14:25:32Z</time>
      </trkpt>
      <trkpt lat="44.87095" lon="4.06837">
        <ele>1149</ele>
        <time>2025-06-07T14:25:42Z</time>
      </trkpt>
      <trkpt lat="44.87079" lon="4.06888">
        <ele>1150</ele>
        <time>2025-06-07T14:26:35Z</time>
      </trkpt>
      <trkpt lat="44.87085" lon="4.06929">
        <ele>1152</ele>
        <time>2025-06-07T14:27:15Z</time>
      </trkpt>
      <trkpt lat="44.87097" lon="4.06966">
        <ele>1154</ele>
        <time>2025-06-07T14:27:53Z</time>
      </trkpt>
      <trkpt lat="44.871" lon="4.07004">
        <ele>1154</ele>
        <time>2025-06-07T14:28:29Z</time>
      </trkpt>
      <trkpt lat="44.87107" lon="4.07006">
        <ele>1155</ele>
        <time>2025-06-07T14:28:39Z</time>
      </trkpt>
      <trkpt lat="44.87125" lon="4.07">
        <ele>1159</ele>
        <time>2025-06-07T14:29:03Z</time>
      </trkpt>
      <trkpt lat="44.87135" lon="4.07003">
        <ele>1161</ele>
        <time>2025-06-07T14:29:17Z</time>
      </trkpt>
      <trkpt lat="44.87144" lon="4.07">
        <ele>1163</ele>
        <time>2025-06-07T14:29:29Z</time>
      </trkpt>
      <trkpt lat="44.87139" lon="4.07027">
        <ele>1161</ele>
        <time>2025-06-07T14:29:56Z</time>
      </trkpt>
      <trkpt lat="44.87138" lon="4.07067">
        <ele>1161</ele>
        <time>2025-06-07T14:30:34Z</time>
      </trkpt>
      <trkpt lat="44.87145" lon="4.07092">
        <ele>1162</ele>
        <time>2025-06-07T14:30:59Z</time>
      </trkpt>
      <trkpt lat="44.87155" lon="4.07112">
        <ele>1164</ele>
        <time>2025-06-07T14:31:22Z</time>
      </trkpt>
      <trkpt lat="44.87156" lon="4.07125">
        <ele>1163</ele>
        <time>2025-06-07T14:31:35Z</time>
      </trkpt>
      <trkpt lat="44.87202" lon="4.07224">
        <ele>1174</ele>
        <time>2025-06-07T14:33:26Z</time>
      </trkpt>
      <trkpt lat="44.87217" lon="4.07289">
        <ele>1174</ele>
        <time>2025-06-07T14:34:31Z</time>
      </trkpt>
      <trkpt lat="44.87231" lon="4.07307">
        <ele>1177</ele>
        <time>2025-06-07T14:34:56Z</time>
      </trkpt>
      <trkpt lat="44.87238" lon="4.07304">
        <ele>1180</ele>
        <time>2025-06-07T14:35:06Z</time>
      </trkpt>
      <trkpt lat="44.87241" lon="4.07295">
        <ele>1182</ele>
        <time>2025-06-07T14:35:16Z</time>
      </trkpt>
      <trkpt lat="44.87241" lon="4.07207">
        <ele>1189</ele>
        <time>2025-06-07T14:36:39Z</time>
      </trkpt>
      <trkpt lat="44.87246" lon="4.07197">
        <ele>1192</ele>
        <time>2025-06-07T14:36:50Z</time>
      </trkpt>
      <trkpt lat="44.87254" lon="4.07196">
        <ele>1194</ele>
        <time>2025-06-07T14:37:01Z</time>
      </trkpt>
      <trkpt lat="44.87284" lon="4.0721">
        <ele>1197</ele>
        <time>2025-06-07T14:37:43Z</time>
      </trkpt>
      <trkpt lat="44.87322" lon="4.07219">
        <ele>1203</ele>
        <time>2025-06-07T14:38:35Z</time>
      </trkpt>
      <trkpt lat="44.87395" lon="4.07253">
        <ele>1206</ele>
        <time>2025-06-07T14:40:17Z</time>
      </trkpt>
      <trkpt lat="44.87423" lon="4.07262">
        <ele>1208</ele>
        <time>2025-06-07T14:40:56Z</time>
      </trkpt>
      <trkpt lat="44.8748" lon="4.07269">
        <ele>1211</ele>
        <time>2025-06-07T14:42:12Z</time>
      </trkpt>
      <trkpt lat="44.87537" lon="4.07287">
        <ele>1212</ele>
        <time>2025-06-07T14:43:30Z</time>
      </trkpt>
      <trkpt lat="44.87585" lon="4.07295">
        <ele>1215</ele>
        <time>2025-06-07T14:44:34Z</time>
      </trkpt>
      <trkpt lat="44.87653" lon="4.07314">
        <ele>1217</ele>
        <time>2025-06-07T14:46:07Z</time>
      </trkpt>
      <trkpt lat="44.87703" lon="4.07319">
        <ele>1221</ele>
        <time>2025-06-07T14:47:14Z</time>
      </trkpt>
      <trkpt lat="44.87769" lon="4.07346">
        <ele>1225</ele>
        <time>2025-06-07T14:48:45Z</time>
      </trkpt>
      <trkpt lat="44.87835" lon="4.07361">
        <ele>1232</ele>
        <time>2025-06-07T14:50:15Z</time>
      </trkpt>
      <trkpt lat="44.87927" lon="4.07403">
        <ele>1245</ele>
        <time>2025-06-07T14:52:24Z</time>
      </trkpt>
      <trkpt lat="44.88027" lon="4.07463">
        <ele>1248</ele>
        <time>2025-06-07T14:54:49Z</time>
      </trkpt>
      <trkpt lat="44.88051" lon="4.07487">
        <ele>1248</ele>
        <time>2025-06-07T14:55:28Z</time>
      </trkpt>
      <trkpt lat="44.88119" lon="4.07541">
        <ele>1244</ele>
        <time>2025-06-07T14:57:12Z</time>
      </trkpt>
      <trkpt lat="44.88138" lon="4.07548">
        <ele>1243</ele>
        <time>2025-06-07T14:57:38Z</time>
      </trkpt>
      <trkpt lat="44.88194" lon="4.07534">
        <ele>1240</ele>
        <time>2025-06-07T14:58:54Z</time>
      </trkpt>
      <trkpt lat="44.88209" lon="4.07548">
        <ele>1238</ele>
        <time>2025-06-07T14:59:18Z</time>
      </trkpt>
      <trkpt lat="44.88231" lon="4.07589">
        <ele>1235</ele>
        <time>2025-06-07T15:00:07Z</time>
      </trkpt>
      <trkpt lat="44.88262" lon="4.0762">
        <ele>1232</ele>
        <time>2025-06-07T15:00:58Z</time>
      </trkpt>
      <trkpt lat="44.88278" lon="4.07634">
        <ele>1231</ele>
        <time>2025-06-07T15:01:23Z</time>
      </trkpt>
      <trkpt lat="44.88295" lon="4.07634">
        <ele>1231</ele>
        <time>2025-06-07T15:01:45Z</time>
      </trkpt>
      <trkpt lat="44.88313" lon="4.07644">
        <ele>1231</ele>
        <time>2025-06-07T15:02:11Z</time>
      </trkpt>
      <trkpt lat="44.88329" lon="4.07716">
        <ele>1226</ele>
        <time>2025-06-07T15:03:22Z</time>
      </trkpt>
      <trkpt lat="44.88354" lon="4.07771">
        <ele>1221</ele>
        <time>2025-06-07T15:04:24Z</time>
      </trkpt>
      <trkpt lat="44.88366" lon="4.07821">
        <ele>1213</ele>
        <time>2025-06-07T15:05:14Z</time>
      </trkpt>
      <trkpt lat="44.88367" lon="4.07849">
        <ele>1208</ele>
        <time>2025-06-07T15:05:41Z</time>
      </trkpt>
      <trkpt lat="44.88379" lon="4.07886">
        <ele>1202</ele>
        <time>2025-06-07T15:06:19Z</time>
      </trkpt>
      <trkpt lat="44.88403" lon="4.07927">
        <ele>1194</ele>
        <time>2025-06-07T15:07:09Z</time>
      </trkpt>
      <trkpt lat="44.88428" lon="4.07951">
        <ele>1189</ele>
        <time>2025-06-07T15:07:50Z</time>
      </trkpt>
      <trkpt lat="44.88455" lon="4.07969">
        <ele>1185</ele>
        <time>2025-06-07T15:08:30Z</time>
      </trkpt>
      <trkpt lat="44.88514" lon="4.07985">
        <ele>1181</ele>
        <time>2025-06-07T15:09:50Z</time>
      </trkpt>
      <trkpt lat="44.88551" lon="4.07973">
        <ele>1181</ele>
        <time>2025-06-07T15:10:40Z</time>
      </trkpt>
      <trkpt lat="44.88594" lon="4.07946">
        <ele>1182</ele>
        <time>2025-06-07T15:11:43Z</time>
      </trkpt>
      <trkpt lat="44.88673" lon="4.0787">
        <ele>1185</ele>
        <time>2025-06-07T15:13:51Z</time>
      </trkpt>
      <trkpt lat="44.88705" lon="4.07821">
        <ele>1190</ele>
        <time>2025-06-07T15:14:54Z</time>
      </trkpt>
      <trkpt lat="44.88765" lon="4.07706">
        <ele>1204</ele>
        <time>2025-06-07T15:17:09Z</time>
      </trkpt>
      <trkpt lat="44.88802" lon="4.07645">
        <ele>1207</ele>
        <time>2025-06-07T15:18:25Z</time>
      </trkpt>
      <trkpt lat="44.88805" lon="4.07578">
        <ele>1211</ele>
        <time>2025-06-07T15:19:28Z</time>
      </trkpt>
      <trkpt lat="44.88812" lon="4.07551">
        <ele>1212</ele>
        <time>2025-06-07T15:19:55Z</time>
      </trkpt>
      <trkpt lat="44.88818" lon="4.07542">
        <ele>1213</ele>
        <time>2025-06-07T15:20:07Z</time>
      </trkpt>
      <trkpt lat="44.88872" lon="4.07554">
        <ele>1210</ele>
        <time>2025-06-07T15:21:20Z</time>
      </trkpt>
      <trkpt lat="44.88926" lon="4.07527">
        <ele>1211</ele>
        <time>2025-06-07T15:22:37Z</time>
      </trkpt>
      <trkpt lat="44.88985" lon="4.07481">
        <ele>1213</ele>
        <time>2025-06-07T15:24:07Z</time>
      </trkpt>
      <trkpt lat="44.89012" lon="4.0747">
        <ele>1213</ele>
        <time>2025-06-07T15:24:44Z</time>
      </trkpt>
      <trkpt lat="44.89041" lon="4.07468">
        <ele>1212</ele>
        <time>2025-06-07T15:25:23Z</time>
      </trkpt>
      <trkpt lat="44.89068" lon="4.07481">
        <ele>1212</ele>
        <time>2025-06-07T15:26:01Z</time>
      </trkpt>
      <trkpt lat="44.89088" lon="4.07484">
        <ele>1212</ele>
        <time>2025-06-07T15:26:28Z</time>
      </trkpt>
      <trkpt lat="44.89107" lon="4.07477">
        <ele>1212</ele>
        <time>2025-06-07T15:26:54Z</time>
      </trkpt>
      <trkpt lat="44.89132" lon="4.07454">
        <ele>1213</ele>
        <time>2025-06-07T15:27:34Z</time>
      </trkpt>
      <trkpt lat="44.89146" lon="4.0745">
        <ele>1214</ele>
        <time>2025-06-07T15:27:53Z</time>
      </trkpt>
      <trkpt lat="44.89167" lon="4.07455">
        <ele>1214</ele>
        <time>2025-06-07T15:28:21Z</time>
      </trkpt>
      <trkpt lat="44.89172" lon="4.07465">
        <ele>1215</ele>
        <time>2025-06-07T15:28:33Z</time>
      </trkpt>
      <trkpt lat="44.89175" lon="4.07453">
        <ele>1215</ele>
        <time>2025-06-07T15:28:45Z</time>
      </trkpt>
      <trkpt lat="44.8917" lon="4.0745">
        <ele>1215</ele>
        <time>2025-06-07T15:28:52Z</time>
      </trkpt>
      <trkpt lat="44.89173" lon="4.07454">
        <ele>1215</ele>
        <time>2025-06-07T15:28:58Z</time>
      </trkpt>
      <trkpt lat="44.89169" lon="4.07456">
        <ele>1215</ele>
        <time>2025-06-07T15:29:03Z</time>
      </trkpt>
      <trkpt lat="44.89167" lon="4.07466">
        <ele>1215</ele>
        <time>2025-06-07T15:29:13Z</time>
      </trkpt>
      <trkpt lat="44.89178" lon="4.07463">
        <ele>1215</ele>
        <time>2025-06-07T15:29:28Z</time>
      </trkpt>
      <trkpt lat="44.89177" lon="4.07455">
        <ele>1215</ele>
        <time>2025-06-07T15:29:36Z</time>
      </trkpt>
      <trkpt lat="44.89214" lon="4.07398">
        <ele>1215</ele>
        <time>2025-06-07T15:30:49Z</time>
      </trkpt>
      <trkpt lat="44.89258" lon="4.07371">
        <ele>1215</ele>
        <time>2025-06-07T15:31:53Z</time>
      </trkpt>
      <trkpt lat="44.89269" lon="4.07372">
        <ele>1215</ele>
        <time>2025-06-07T15:32:07Z</time>
      </trkpt>
      <trkpt lat="44.89308" lon="4.07362">
        <ele>1214</ele>
        <time>2025-06-07T15:33:00Z</time>
      </trkpt>
      <trkpt lat="44.89367" lon="4.07358">
        <ele>1210</ele>
        <time>2025-06-07T15:34:19Z</time>
      </trkpt>
      <trkpt lat="44.89404" lon="4.07372">
        <ele>1209</ele>
        <time>2025-06-07T15:35:10Z</time>
      </trkpt>
      <trkpt lat="44.89451" lon="4.07399">
        <ele>1210</ele>
        <time>2025-06-07T15:36:18Z</time>
      </trkpt>
      <trkpt lat="44.89508" lon="4.07414">
        <ele>1210</ele>
        <time>2025-06-07T15:37:35Z</time>
      </trkpt>
      <trkpt lat="44.89579" lon="4.07408">
        <ele>1204</ele>
        <time>2025-06-07T15:39:10Z</time>
      </trkpt>
      <trkpt lat="44.89587" lon="4.074">
        <ele>1203</ele>
        <time>2025-06-07T15:39:23Z</time>
      </trkpt>
      <trkpt lat="44.8959" lon="4.07389">
        <ele>1202</ele>
        <time>2025-06-07T15:39:35Z</time>
      </trkpt>
      <trkpt lat="44.89581" lon="4.073">
        <ele>1198</ele>
        <time>2025-06-07T15:41:00Z</time>
      </trkpt>
      <trkpt lat="44.89596" lon="4.07267">
        <ele>1196</ele>
        <time>2025-06-07T15:41:37Z</time>
      </trkpt>
      <trkpt lat="44.8961" lon="4.07188">
        <ele>1195</ele>
        <time>2025-06-07T15:42:54Z</time>
      </trkpt>
      <trkpt lat="44.89594" lon="4.07128">
        <ele>1198</ele>
        <time>2025-06-07T15:43:54Z</time>
      </trkpt>
      <trkpt lat="44.89595" lon="4.07102">
        <ele>1200</ele>
        <time>2025-06-07T15:44:19Z</time>
      </trkpt>
      <trkpt lat="44.896" lon="4.07064">
        <ele>1201</ele>
        <time>2025-06-07T15:44:55Z</time>
      </trkpt>
      <trkpt lat="44.89619" lon="4.07003">
        <ele>1202</ele>
        <time>2025-06-07T15:45:58Z</time>
      </trkpt>
      <trkpt lat="44.89635" lon="4.06989">
        <ele>1201</ele>
        <time>2025-06-07T15:46:23Z</time>
      </trkpt>
      <trkpt lat="44.89681" lon="4.06969">
        <ele>1199</ele>
        <time>2025-06-07T15:47:28Z</time>
      </trkpt>
      <trkpt lat="44.89707" lon="4.06932">
        <ele>1199</ele>
        <time>2025-06-07T15:48:17Z</time>
      </trkpt>
      <trkpt lat="44.89755" lon="4.06886">
        <ele>1197</ele>
        <time>2025-06-07T15:49:34Z</time>
      </trkpt>
      <trkpt lat="44.89771" lon="4.06872">
        <ele>1196</ele>
        <time>2025-06-07T15:49:59Z</time>
      </trkpt>
      <trkpt lat="44.89798" lon="4.06858">
        <ele>1193</ele>
        <time>2025-06-07T15:50:38Z</time>
      </trkpt>
      <trkpt lat="44.89841" lon="4.06821">
        <ele>1189</ele>
        <time>2025-06-07T15:51:45Z</time>
      </trkpt>
      <trkpt lat="44.8989" lon="4.06753">
        <ele>1191</ele>
        <time>2025-06-07T15:53:17Z</time>
      </trkpt>
      <trkpt lat="44.89916" lon="4.06734">
        <ele>1189</ele>
        <time>2025-06-07T15:53:56Z</time>
      </trkpt>
      <trkpt lat="44.89936" lon="4.06707">
        <ele>1190</ele>
        <time>2025-06-07T15:54:33Z</time>
      </trkpt>
      <trkpt lat="44.89961" lon="4.06685">
        <ele>1190</ele>
        <time>2025-06-07T15:55:12Z</time>
      </trkpt>
      <trkpt lat="44.89997" lon="4.06681">
        <ele>1186</ele>
        <time>2025-06-07T15:56:00Z</time>
      </trkpt>
      <trkpt lat="44.90053" lon="4.0669">
        <ele>1185</ele>
        <time>2025-06-07T15:57:15Z</time>
      </trkpt>
      <trkpt lat="44.90103" lon="4.06687">
        <ele>1184</ele>
        <time>2025-06-07T15:58:22Z</time>
      </trkpt>
      <trkpt lat="44.90137" lon="4.06663">
        <ele>1183</ele>
        <time>2025-06-07T15:59:13Z</time>
      </trkpt>
      <trkpt lat="44.9016" lon="4.06637">
        <ele>1180</ele>
        <time>2025-06-07T15:59:52Z</time>
      </trkpt>
      <trkpt lat="44.90165" lon="4.06625">
        <ele>1180</ele>
        <time>2025-06-07T16:00:05Z</time>
      </trkpt>
      <trkpt lat="44.9016" lon="4.06602">
        <ele>1180</ele>
        <time>2025-06-07T16:00:28Z</time>
      </trkpt>
      <trkpt lat="44.90125" lon="4.06521">
        <ele>1178</ele>
        <time>2025-06-07T16:01:58Z</time>
      </trkpt>
      <trkpt lat="44.90121" lon="4.06495">
        <ele>1176</ele>
        <time>2025-06-07T16:02:23Z</time>
      </trkpt>
      <trkpt lat="44.90124" lon="4.06482">
        <ele>1176</ele>
        <time>2025-06-07T16:02:36Z</time>
      </trkpt>
      <trkpt lat="44.90131" lon="4.06473">
        <ele>1176</ele>
        <time>2025-06-07T16:02:49Z</time>
      </trkpt>
      <trkpt lat="44.90184" lon="4.06443">
        <ele>1175</ele>
        <time>2025-06-07T16:04:05Z</time>
      </trkpt>
      <trkpt lat="44.90204" lon="4.06415">
        <ele>1177</ele>
        <time>2025-06-07T16:04:42Z</time>
      </trkpt>
      <trkpt lat="44.90212" lon="4.06391">
        <ele>1178</ele>
        <time>2025-06-07T16:05:07Z</time>
      </trkpt>
      <trkpt lat="44.90215" lon="4.06365">
        <ele>1179</ele>
        <time>2025-06-07T16:05:32Z</time>
      </trkpt>
      <trkpt lat="44.90211" lon="4.06354">
        <ele>1179</ele>
        <time>2025-06-07T16:05:44Z</time>
      </trkpt>
      <trkpt lat="44.90204" lon="4.06352">
        <ele>1180</ele>
        <time>2025-06-07T16:05:54Z</time>
      </trkpt>
      <trkpt lat="44.90218" lon="4.06335">
        <ele>1180</ele>
        <time>2025-06-07T16:06:18Z</time>
      </trkpt>
      <trkpt lat="44.90258" lon="4.06213">
        <ele>1179</ele>
        <time>2025-06-07T16:08:25Z</time>
      </trkpt>
      <trkpt lat="44.90278" lon="4.06165">
        <ele>1179</ele>
        <time>2025-06-07T16:09:18Z</time>
      </trkpt>
      <trkpt lat="44.90393" lon="4.05932">
        <ele>1178</ele>
        <time>2025-06-07T16:13:46Z</time>
      </trkpt>
      <trkpt lat="44.90395" lon="4.05919">
        <ele>1178</ele>
        <time>2025-06-07T16:13:59Z</time>
      </trkpt>
      <trkpt lat="44.90391" lon="4.05908">
        <ele>1178</ele>
        <time>2025-06-07T16:14:11Z</time>
      </trkpt>
      <trkpt lat="44.904" lon="4.05895">
        <ele>1178</ele>
        <time>2025-06-07T16:14:28Z</time>
      </trkpt>
      <trkpt lat="44.90426" lon="4.05876">
        <ele>1179</ele>
        <time>2025-06-07T16:15:07Z</time>
      </trkpt>
      <trkpt lat="44.90443" lon="4.05848">
        <ele>1179</ele>
        <time>2025-06-07T16:15:42Z</time>
      </trkpt>
      <trkpt lat="44.90497" lon="4.05777">
        <ele>1178</ele>
        <time>2025-06-07T16:17:20Z</time>
      </trkpt>
      <trkpt lat="44.90529" lon="4.05713">
        <ele>1174</ele>
        <time>2025-06-07T16:18:34Z</time>
      </trkpt>
      <trkpt lat="44.90603" lon="4.0561">
        <ele>1172</ele>
        <time>2025-06-07T16:20:53Z</time>
      </trkpt>
      <trkpt lat="44.90623" lon="4.05586">
        <ele>1171</ele>
        <time>2025-06-07T16:21:28Z</time>
      </trkpt>
      <trkpt lat="44.90656" lon="4.05553">
        <ele>1170</ele>
        <time>2025-06-07T16:22:22Z</time>
      </trkpt>
      <trkpt lat="44.90677" lon="4.05542">
        <ele>1169</ele>
        <time>2025-06-07T16:22:52Z</time>
      </trkpt>
      <trkpt lat="44.90703" lon="4.05515">
        <ele>1169</ele>
        <time>2025-06-07T16:23:35Z</time>
      </trkpt>
      <trkpt lat="44.9075" lon="4.0548">
        <ele>1168</ele>
        <time>2025-06-07T16:24:46Z</time>
      </trkpt>
      <trkpt lat="44.90769" lon="4.05473">
        <ele>1166</ele>
        <time>2025-06-07T16:25:12Z</time>
      </trkpt>
      <trkpt lat="44.90776" lon="4.0548">
        <ele>1165</ele>
        <time>2025-06-07T16:25:23Z</time>
      </trkpt>
      <trkpt lat="44.90794" lon="4.05483">
        <ele>1163</ele>
        <time>2025-06-07T16:25:48Z</time>
      </trkpt>
      <trkpt lat="44.9092" lon="4.05459">
        <ele>1151</ele>
        <time>2025-06-07T16:28:37Z</time>
      </trkpt>
      <trkpt lat="44.91053" lon="4.0541">
        <ele>1138</ele>
        <time>2025-06-07T16:31:41Z</time>
      </trkpt>
      <trkpt lat="44.91092" lon="4.05389">
        <ele>1133</ele>
        <time>2025-06-07T16:32:36Z</time>
      </trkpt>
      <trkpt lat="44.91152" lon="4.05343">
        <ele>1128</ele>
        <time>2025-06-07T16:34:07Z</time>
      </trkpt>
      <trkpt lat="44.91209" lon="4.05289">
        <ele>1121</ele>
        <time>2025-06-07T16:35:39Z</time>
      </trkpt>
      <trkpt lat="44.91269" lon="4.05218">
        <ele>1118</ele>
        <time>2025-06-07T16:37:24Z</time>
      </trkpt>
      <trkpt lat="44.91324" lon="4.05145">
        <ele>1116</ele>
        <time>2025-06-07T16:39:04Z</time>
      </trkpt>
      <trkpt lat="44.91381" lon="4.05098">
        <ele>1113</ele>
        <time>2025-06-07T16:40:32Z</time>
      </trkpt>
      <trkpt lat="44.91432" lon="4.05038">
        <ele>1110</ele>
        <time>2025-06-07T16:42:01Z</time>
      </trkpt>
      <trkpt lat="44.91456" lon="4.05016">
        <ele>1107</ele>
        <time>2025-06-07T16:42:39Z</time>
      </trkpt>
      <trkpt lat="44.91527" lon="4.04965">
        <ele>1098</ele>
        <time>2025-06-07T16:44:25Z</time>
      </trkpt>
      <trkpt lat="44.91605" lon="4.04885">
        <ele>1091</ele>
        <time>2025-06-07T16:46:34Z</time>
      </trkpt>
      <trkpt lat="44.91684" lon="4.04769">
        <ele>1084</ele>
        <time>2025-06-07T16:49:06Z</time>
      </trkpt>
      <trkpt lat="44.91715" lon="4.04737">
        <ele>1081</ele>
        <time>2025-06-07T16:49:57Z</time>
      </trkpt>
      <trkpt lat="44.91727" lon="4.04716">
        <ele>1080</ele>
        <time>2025-06-07T16:50:23Z</time>
      </trkpt>
      <trkpt lat="44.91758" lon="4.04617">
        <ele>1080</ele>
        <time>2025-06-07T16:52:05Z</time>
      </trkpt>
      <trkpt lat="44.91778" lon="4.04456">
        <ele>1081</ele>
        <time>2025-06-07T16:54:40Z</time>
      </trkpt>
      <trkpt lat="44.91802" lon="4.04399">
        <ele>1082</ele>
        <time>2025-06-07T16:55:42Z</time>
      </trkpt>
      <trkpt lat="44.91813" lon="4.0436">
        <ele>1083</ele>
        <time>2025-06-07T16:56:22Z</time>
      </trkpt>
      <trkpt lat="44.91824" lon="4.04337">
        <ele>1084</ele>
        <time>2025-06-07T16:56:48Z</time>
      </trkpt>
      <trkpt lat="44.91851" lon="4.04299">
        <ele>1085</ele>
        <time>2025-06-07T16:57:39Z</time>
      </trkpt>
      <trkpt lat="44.9188" lon="4.04229">
        <ele>1086</ele>
        <time>2025-06-07T16:58:56Z</time>
      </trkpt>
      <trkpt lat="44.91898" lon="4.04166">
        <ele>1087</ele>
        <time>2025-06-07T17:00:00Z</time>
      </trkpt>
      <trkpt lat="44.91904" lon="4.04127">
        <ele>1085</ele>
        <time>2025-06-07T17:00:38Z</time>
      </trkpt>
      <trkpt lat="44.91913" lon="4.04103">
        <ele>1084</ele>
        <time>2025-06-07T17:01:03Z</time>
      </trkpt>
      <trkpt lat="44.91959" lon="4.04033">
        <ele>1080</ele>
        <time>2025-06-07T17:02:34Z</time>
      </trkpt>
      <trkpt lat="44.91988" lon="4.0398">
        <ele>1079</ele>
        <time>2025-06-07T17:03:37Z</time>
      </trkpt>
      <trkpt lat="44.91994" lon="4.03913">
        <ele>1077</ele>
        <time>2025-06-07T17:04:41Z</time>
      </trkpt>
      <trkpt lat="44.92033" lon="4.03804">
        <ele>1074</ele>
        <time>2025-06-07T17:06:36Z</time>
      </trkpt>
      <trkpt lat="44.92092" lon="4.03699">
        <ele>1070</ele>
        <time>2025-06-07T17:08:43Z</time>
      </trkpt>
      <trkpt lat="44.92109" lon="4.03636">
        <ele>1062</ele>
        <time>2025-06-07T17:09:46Z</time>
      </trkpt>
      <trkpt lat="44.92147" lon="4.03593">
        <ele>1061</ele>
        <time>2025-06-07T17:10:51Z</time>
      </trkpt>
      <trkpt lat="44.92167" lon="4.0356">
        <ele>1061</ele>
        <time>2025-06-07T17:11:32Z</time>
      </trkpt>
      <trkpt lat="44.92179" lon="4.03508">
        <ele>1057</ele>
        <time>2025-06-07T17:12:24Z</time>
      </trkpt>
      <trkpt lat="44.92198" lon="4.0346">
        <ele>1053</ele>
        <time>2025-06-07T17:13:16Z</time>
      </trkpt>
      <trkpt lat="44.92217" lon="4.03444">
        <ele>1053</ele>
        <time>2025-06-07T17:13:46Z</time>
      </trkpt>
      <trkpt lat="44.92227" lon="4.03416">
        <ele>1053</ele>
        <time>2025-06-07T17:14:15Z</time>
      </trkpt>
      <trkpt lat="44.92243" lon="4.03402">
        <ele>1055</ele>
        <time>2025-06-07T17:14:40Z</time>
      </trkpt>
      <trkpt lat="44.92256" lon="4.03365">
        <ele>1055</ele>
        <time>2025-06-07T17:15:19Z</time>
      </trkpt>
      <trkpt lat="44.92331" lon="4.03278">
        <ele>1048</ele>
        <time>2025-06-07T17:17:29Z</time>
      </trkpt>
      <trkpt lat="44.92362" lon="4.03247">
        <ele>1045</ele>
        <time>2025-06-07T17:18:20Z</time>
      </trkpt>
      <trkpt lat="44.9239" lon="4.03223">
        <ele>1042</ele>
        <time>2025-06-07T17:19:03Z</time>
      </trkpt>
      <trkpt lat="44.92403" lon="4.03199">
        <ele>1042</ele>
        <time>2025-06-07T17:19:32Z</time>
      </trkpt>
      <trkpt lat="44.92413" lon="4.03168">
        <ele>1042</ele>
        <time>2025-06-07T17:20:04Z</time>
      </trkpt>
      <trkpt lat="44.92419" lon="4.03135">
        <ele>1043</ele>
        <time>2025-06-07T17:20:36Z</time>
      </trkpt>
      <trkpt lat="44.92445" lon="4.03107">
        <ele>1042</ele>
        <time>2025-06-07T17:21:20Z</time>
      </trkpt>
      <trkpt lat="44.92491" lon="4.03046">
        <ele>1042</ele>
        <time>2025-06-07T17:22:44Z</time>
      </trkpt>
      <trkpt lat="44.92533" lon="4.02995">
        <ele>1043</ele>
        <time>2025-06-07T17:23:58Z</time>
      </trkpt>
      <trkpt lat="44.92555" lon="4.0292">
        <ele>1047</ele>
        <time>2025-06-07T17:25:15Z</time>
      </trkpt>
      <trkpt lat="44.92602" lon="4.02708">
        <ele>1044</ele>
        <time>2025-06-07T17:28:45Z</time>
      </trkpt>
      <trkpt lat="44.92608" lon="4.02647">
        <ele>1040</ele>
        <time>2025-06-07T17:29:43Z</time>
      </trkpt>
      <trkpt lat="44.92604" lon="4.02592">
        <ele>1040</ele>
        <time>2025-06-07T17:30:35Z</time>
      </trkpt>
      <trkpt lat="44.92611" lon="4.02549">
        <ele>1037</ele>
        <time>2025-06-07T17:31:17Z</time>
      </trkpt>
      <trkpt lat="44.9263" lon="4.02504">
        <ele>1033</ele>
        <time>2025-06-07T17:32:06Z</time>
      </trkpt>
      <trkpt lat="44.92634" lon="4.02453">
        <ele>1032</ele>
        <time>2025-06-07T17:32:55Z</time>
      </trkpt>
      <trkpt lat="44.92645" lon="4.02415">
        <ele>1031</ele>
        <time>2025-06-07T17:33:33Z</time>
      </trkpt>
      <trkpt lat="44.92649" lon="4.02418">
        <ele>1030</ele>
        <time>2025-06-07T17:33:39Z</time>
      </trkpt>
      <trkpt lat="44.92656" lon="4.02415">
        <ele>1028</ele>
        <time>2025-06-07T17:33:49Z</time>
      </trkpt>
      <trkpt lat="44.9267" lon="4.02399">
        <ele>1026</ele>
        <time>2025-06-07T17:34:13Z</time>
      </trkpt>
      <trkpt lat="44.92695" lon="4.02311">
        <ele>1024</ele>
        <time>2025-06-07T17:35:43Z</time>
      </trkpt>
      <trkpt lat="44.92715" lon="4.02281">
        <ele>1020</ele>
        <time>2025-06-07T17:36:22Z</time>
      </trkpt>
      <trkpt lat="44.92768" lon="4.02167">
        <ele>1014</ele>
        <time>2025-06-07T17:38:31Z</time>
      </trkpt>
      <trkpt lat="44.92776" lon="4.02156">
        <ele>1012</ele>
        <time>2025-06-07T17:38:46Z</time>
      </trkpt>
      <trkpt lat="44.9281" lon="4.02129">
        <ele>1000</ele>
        <time>2025-06-07T17:39:38Z</time>
      </trkpt>
      <trkpt lat="44.92818" lon="4.02105">
        <ele>998</ele>
        <time>2025-06-07T17:40:03Z</time>
      </trkpt>
      <trkpt lat="44.9282" lon="4.02048">
        <ele>1001</ele>
        <time>2025-06-07T17:40:57Z</time>
      </trkpt>
      <trkpt lat="44.92852" lon="4.02002">
        <ele>990</ele>
        <time>2025-06-07T17:41:58Z</time>
      </trkpt>
      <trkpt lat="44.92869" lon="4.0197">
        <ele>982</ele>
        <time>2025-06-07T17:42:35Z</time>
      </trkpt>
      <trkpt lat="44.92878" lon="4.01947">
        <ele>978</ele>
        <time>2025-06-07T17:43:00Z</time>
      </trkpt>
      <trkpt lat="44.92888" lon="4.01883">
        <ele>975</ele>
        <time>2025-06-07T17:44:02Z</time>
      </trkpt>
      <trkpt lat="44.92908" lon="4.01855">
        <ele>967</ele>
        <time>2025-06-07T17:44:40Z</time>
      </trkpt>
      <trkpt lat="44.92917" lon="4.01832">
        <ele>966</ele>
        <time>2025-06-07T17:45:04Z</time>
      </trkpt>
      <trkpt lat="44.92932" lon="4.01817">
        <ele>959</ele>
        <time>2025-06-07T17:45:29Z</time>
      </trkpt>
      <trkpt lat="44.92948" lon="4.01785">
        <ele>954</ele>
        <time>2025-06-07T17:46:06Z</time>
      </trkpt>
      <trkpt lat="44.92956" lon="4.0178">
        <ele>952</ele>
        <time>2025-06-07T17:46:18Z</time>
      </trkpt>
      <trkpt lat="44.92983" lon="4.01776">
        <ele>945</ele>
        <time>2025-06-07T17:46:54Z</time>
      </trkpt>
      <trkpt lat="44.93041" lon="4.0178">
        <ele>923</ele>
        <time>2025-06-07T17:48:11Z</time>
      </trkpt>
      <trkpt lat="44.9307" lon="4.01776">
        <ele>912</ele>
        <time>2025-06-07T17:48:50Z</time>
      </trkpt>
      <trkpt lat="44.93087" lon="4.01766">
        <ele>907</ele>
        <time>2025-06-07T17:49:15Z</time>
      </trkpt>
      <trkpt lat="44.93086" lon="4.0177">
        <ele>907</ele>
        <time>2025-06-07T17:49:19Z</time>
      </trkpt>
      <trkpt lat="44.93095" lon="4.01758">
        <ele>909</ele>
        <time>2025-06-07T17:49:35Z</time>
      </trkpt>
      <trkpt lat="44.93148" lon="4.01729">
        <ele>916</ele>
        <time>2025-06-07T17:50:51Z</time>
      </trkpt>
      <trkpt lat="44.9319" lon="4.01696">
        <ele>928</ele>
        <time>2025-06-07T17:51:55Z</time>
      </trkpt>
      <trkpt lat="44.93205" lon="4.01678">
        <ele>933</ele>
        <time>2025-06-07T17:52:22Z</time>
      </trkpt>
      <trkpt lat="44.93214" lon="4.01655">
        <ele>936</ele>
        <time>2025-06-07T17:52:46Z</time>
      </trkpt>
    </trkseg>
  </trk>
</gpx>